createdAt,value
2018-12-25T00:01:27.452Z,7.3
2018-12-25T00:06:29.263Z,6.9
2018-12-25T00:11:30.573Z,6
2018-12-25T00:16:32.428Z,6.9
2018-12-25T00:21:34.163Z,6.5
2018-12-25T00:26:35.876Z,6.2
2018-12-25T00:31:39.207Z,6.6
2018-12-25T00:36:48.917Z,6.1
2018-12-25T00:41:51.486Z,6.9
2018-12-25T00:46:53.558Z,7.3
2018-12-25T00:51:55.217Z,6.3
2018-12-25T00:56:57.188Z,5.9
2018-12-25T01:02:02.216Z,6.6
2018-12-25T01:07:04.207Z,6.1
2018-12-25T01:12:05.965Z,5.9
2018-12-25T01:17:07.698Z,6.1
2018-12-25T01:22:08.984Z,6.1
2018-12-25T01:27:11.106Z,5.7
2018-12-25T01:32:13.601Z,5.6
2018-12-25T01:37:15.468Z,5.2
2018-12-25T01:42:25.543Z,5.3
2018-12-25T01:47:27.184Z,5.1
2018-12-25T01:52:29.139Z,4.8
2018-12-25T01:57:30.823Z,4.7
2018-12-25T02:02:33.052Z,4.3
2018-12-25T02:07:36.856Z,4.3
2018-12-25T02:12:38.715Z,4.1
2018-12-25T02:17:40.765Z,4.3
2018-12-25T02:22:42.908Z,4.5
2018-12-25T02:27:45.217Z,3.6
2018-12-25T02:32:46.859Z,3.8
2018-12-25T02:37:48.841Z,3.9
2018-12-25T02:42:51.411Z,3.9
2018-12-25T02:48:01.517Z,3.6
2018-12-25T02:53:03.488Z,4
2018-12-25T02:58:04.709Z,3.9
2018-12-25T03:03:06.367Z,3.8
2018-12-25T03:08:09.497Z,3.7
2018-12-25T03:13:11.009Z,3.6
2018-12-25T03:18:12.855Z,3.6
2018-12-25T03:23:14.822Z,3.3
2018-12-25T03:28:16.427Z,3.4
2018-12-25T03:33:18.345Z,3.1
2018-12-25T03:38:20.067Z,3.3
2018-12-25T03:43:21.476Z,3.2
2018-12-25T03:48:24.063Z,3
2018-12-25T03:53:27.412Z,2.8
2018-12-25T03:58:30.167Z,3
2018-12-25T04:03:33.429Z,2.8
2018-12-25T04:08:35.358Z,2.8
2018-12-25T04:13:37.805Z,2.9
2018-12-25T04:18:39.460Z,2.8
2018-12-25T04:23:42.039Z,2.6
2018-12-25T04:28:44.292Z,2.6
2018-12-25T04:33:46.448Z,2.9
2018-12-25T04:38:48.696Z,2.7
2018-12-25T04:43:50.317Z,2.5
2018-12-25T04:48:52.726Z,2.7
2018-12-25T04:53:54.891Z,2.6
2018-12-25T04:58:56.537Z,2.9
2018-12-25T05:03:57.958Z,2.7
2018-12-25T05:08:59.931Z,2.4
2018-12-25T05:14:02.553Z,2.8
2018-12-25T05:19:04.352Z,3.1
2018-12-25T05:24:06.231Z,3
2018-12-25T05:29:08.326Z,2.9
2018-12-25T05:34:08.398Z,3.1
2018-12-25T05:39:10.636Z,2.9
2018-12-25T05:44:14.012Z,3.1
2018-12-25T05:49:16.350Z,3.4
2018-12-25T05:54:19.123Z,3.5
2018-12-25T05:59:20.802Z,3.5
2018-12-25T06:04:22.230Z,4
2018-12-25T06:09:23.688Z,5.2
2018-12-25T06:14:26.243Z,5
2018-12-25T06:19:28.490Z,7.2
2018-12-25T06:24:38.974Z,7.9
2018-12-25T06:29:40.869Z,7.4
2018-12-25T06:34:42.473Z,6.7
2018-12-25T06:39:54.820Z,6.4
2018-12-25T06:44:50.749Z,6.6
2018-12-25T06:50:05.305Z,7.3
2018-12-25T06:55:00.962Z,7.7
2018-12-25T07:00:06.978Z,7.3
2018-12-25T07:05:17.056Z,7
2018-12-25T07:10:22.333Z,7.4
2018-12-25T07:15:40.396Z,7.8
2018-12-25T07:20:33.570Z,9.7
2018-12-25T07:25:37.041Z,10.4
2018-12-25T07:30:43.763Z,10.2
2018-12-25T07:35:45.412Z,9.8
2018-12-25T07:40:49.069Z,9.8
2018-12-25T07:45:51.042Z,10.2
2018-12-25T07:51:06.481Z,10.1
2018-12-25T07:55:56.191Z,9.9
2018-12-25T08:00:58.436Z,9.3
2018-12-25T08:06:10.080Z,10
2018-12-25T08:11:00.495Z,9.6
2018-12-25T08:16:02.163Z,9.2
2018-12-25T08:21:04.395Z,9.3
2018-12-25T08:26:04.238Z,9.6
2018-12-25T08:31:08.175Z,13.3
2018-12-25T08:36:10.367Z,12.5
2018-12-25T08:41:12.023Z,12.4
2018-12-25T08:46:22.064Z,11.5
2018-12-25T08:51:23.189Z,11.8
2018-12-25T08:56:25.928Z,11.8
2018-12-25T09:01:27.277Z,11.1
2018-12-25T09:06:37.820Z,11
2018-12-25T09:11:39.007Z,11.1
2018-12-25T09:16:41.550Z,11.3
2018-12-25T09:21:47.515Z,10.5
2018-12-25T09:26:49.167Z,10.7
2018-12-25T09:31:50.512Z,10.8
2018-12-25T09:37:00.944Z,11.7
2018-12-25T09:42:02.660Z,12.5
2018-12-25T09:47:05.645Z,12.9
2018-12-25T09:52:07.045Z,12.3
2018-12-25T09:57:08.578Z,12
2018-12-25T10:02:10.812Z,12
2018-12-25T10:07:20.874Z,12.8
2018-12-25T12:27:48.553Z,15.5
2018-12-25T12:32:49.882Z,15.4
2018-12-25T12:37:51.326Z,15.5
2018-12-25T12:42:53.526Z,17.7
2018-12-25T12:47:56.026Z,14.9
2018-12-25T12:53:03.114Z,14.8
2018-12-25T12:58:03.141Z,14.7
2018-12-25T13:03:04.747Z,14.2
2018-12-25T13:08:07.256Z,15
2018-12-25T13:13:08.919Z,13.8
2018-12-25T13:18:10.815Z,13.7
2018-12-25T13:23:12.556Z,13.5
2018-12-25T13:28:14.375Z,12
2018-12-25T13:33:16.775Z,12.4
2018-12-25T13:38:18.590Z,12.1
2018-12-25T13:43:20.209Z,11.6
2018-12-25T13:48:30.203Z,11.4
2018-12-25T13:53:31.547Z,11.7
2018-12-25T13:58:33.788Z,11.3
2018-12-25T14:03:33.773Z,10.7
2018-12-25T14:08:35.438Z,10.3
2018-12-25T14:13:37.216Z,9.9
2018-12-25T14:18:38.931Z,9.6
2018-12-25T14:23:40.691Z,9.5
2018-12-25T14:28:43.010Z,9.4
2018-12-25T14:33:44.607Z,8.5
2018-12-25T14:38:45.980Z,9
2018-12-25T14:43:47.403Z,8.7
2018-12-25T14:48:49.673Z,9.8
2018-12-25T14:53:51.474Z,9.7
2018-12-25T14:58:54.216Z,11.3
2018-12-25T15:03:56.012Z,12.9
2018-12-25T15:08:57.977Z,14.7
2018-12-25T15:14:01.708Z,15
2018-12-25T15:19:03.259Z,13.8
2018-12-25T15:24:05.241Z,16.4
2018-12-25T15:29:06.790Z,15.7
2018-12-25T15:34:08.918Z,16.8
2018-12-25T15:39:10.896Z,15.9
2018-12-25T15:44:13.546Z,15.5
2018-12-25T15:49:15.407Z,14.6
2018-12-25T15:54:18.223Z,14.9
2018-12-25T15:59:20.035Z,13.9
2018-12-25T16:04:22.429Z,14
2018-12-25T16:09:24.525Z,13.2
2018-12-25T16:14:26.295Z,13.4
2018-12-25T16:19:32.177Z,13
2018-12-25T16:24:33.928Z,12.5
2018-12-25T16:29:40.231Z,12.6
2018-12-25T16:34:42.257Z,12.7
2018-12-25T16:39:44.304Z,12.8
2018-12-25T16:44:45.941Z,12.6
2018-12-25T16:49:47.404Z,12.8
2018-12-25T16:54:49.797Z,12.4
2018-12-25T16:59:51.021Z,17.5
2018-12-25T17:04:52.836Z,17.2
2018-12-25T17:09:53.081Z,16
2018-12-25T17:14:54.647Z,16.7
2018-12-25T17:19:56.176Z,16.4
2018-12-25T17:25:01.299Z,19.3
2018-12-25T17:30:02.652Z,17.9
2018-12-25T17:35:04.036Z,17.8
2018-12-25T17:40:05.329Z,17.4
2018-12-25T17:45:07.621Z,16.9
2018-12-25T17:50:09.751Z,17.8
2018-12-25T17:55:12.093Z,18.1
2018-12-25T18:00:13.128Z,17
2018-12-25T18:05:14.268Z,16.9
2018-12-25T18:10:16.338Z,16.4
2018-12-25T18:15:19.157Z,17.5
2018-12-25T18:20:21.778Z,16.2
2018-12-25T18:25:23.672Z,14.8
2018-12-25T18:30:25.663Z,14.7
2018-12-25T18:35:27.649Z,14.7
2018-12-25T18:40:29.797Z,14.4
2018-12-25T18:45:32.520Z,14
2018-12-25T18:50:35.049Z,13.4
2018-12-25T18:55:36.892Z,12.8
2018-12-25T19:00:39.895Z,12.2
2018-12-25T19:05:41.420Z,12.4
2018-12-25T19:10:43.119Z,12.2
2018-12-25T19:15:45.713Z,11.3
2018-12-25T19:20:48.792Z,12.7
2018-12-25T19:25:50.885Z,12.1
2018-12-25T19:30:53.198Z,13
2018-12-25T19:35:54.693Z,13.5
2018-12-25T19:40:59.684Z,13.5
2018-12-25T19:46:03.834Z,13.3
2018-12-25T19:51:05.521Z,13.3
2018-12-25T19:56:07.037Z,13.1
2018-12-25T20:01:09.539Z,14.1
2018-12-25T20:06:11.351Z,14.1
2018-12-25T20:11:13.593Z,13.4
2018-12-25T20:16:15.019Z,12
2018-12-25T20:21:16.462Z,11.9
2018-12-25T20:26:18.687Z,11.9
2018-12-25T20:31:20.142Z,11.7
2018-12-25T20:36:22.103Z,10.5
2018-12-25T20:41:23.896Z,9.8
2018-12-25T20:46:25.497Z,10.1
2018-12-25T20:51:26.820Z,10.2
2018-12-25T20:56:28.951Z,9.3
2018-12-25T21:01:39.759Z,8.5
2018-12-25T21:06:42.505Z,9
2018-12-25T21:11:42.634Z,8.3
2018-12-25T21:16:46.059Z,8.4
2018-12-25T21:21:47.873Z,9.4
2018-12-25T21:26:49.662Z,7.9
2018-12-25T21:31:52.077Z,7.5
2018-12-25T21:36:54.570Z,7.9
2018-12-25T21:41:56.127Z,8.4
2018-12-25T21:46:58.726Z,8.3
2018-12-25T21:52:00.360Z,8.4
2018-12-25T21:57:00.138Z,8
2018-12-25T22:02:01.821Z,7.9
2018-12-25T22:07:04.030Z,7.8
2018-12-25T22:12:08.304Z,7.7
2018-12-25T22:17:10.063Z,7.4
2018-12-25T22:22:11.443Z,7.8
2018-12-25T22:27:12.897Z,7.2
2018-12-25T22:32:14.984Z,7.3
2018-12-25T22:37:17.534Z,7.4
2018-12-25T22:42:18.716Z,7
2018-12-25T22:47:20.074Z,7.1
2018-12-25T22:52:21.366Z,7
2018-12-25T22:57:23.799Z,6.8
2018-12-25T23:02:24.879Z,6.9
2018-12-25T23:07:26.649Z,7.2
2018-12-25T23:12:28.713Z,7
2018-12-25T23:17:30.860Z,6.7
2018-12-25T23:22:32.859Z,6.9
2018-12-25T23:27:35.010Z,6.3
2018-12-25T23:32:36.195Z,6.6
2018-12-25T23:37:38.448Z,6.6
2018-12-25T23:42:40.421Z,6.1
2018-12-25T23:47:41.951Z,6.1
2018-12-25T23:52:42.469Z,6.2
2018-12-25T23:57:44.482Z,6
